Time;durP1;ratioP1;P1;durP2;ratioP2;P2;SDS_P1;SDS_P2;PMS_P1;PMS_P2;Temp;Humidity;BMP_temperature;BMP_pressure;BME280_temperature;BME280_humidity;BME280_pressure;Samples;Min_cycle;Max_cycle;Signal;HPM_P1;HPM_P2
2022/10/25 00:01:26;;;;;;;0.83;0.80;;;12.80;99.90;;;;;;5075015;28;20735;-56
2022/10/25 00:03:53;;;;;;;0.83;0.70;;;12.80;99.90;;;;;;5075453;28;20236;-57
2022/10/25 00:06:21;;;;;;;1.37;0.80;;;12.80;99.90;;;;;;5073982;28;20623;-56
2022/10/25 00:08:48;;;;;;;3.23;0.93;;;12.70;99.90;;;;;;5074514;28;20419;-56
2022/10/25 00:11:19;;;;;;;2.60;0.80;;;12.70;99.90;;;;;;5074829;28;20201;-56
2022/10/25 00:13:48;;;;;;;2.30;0.90;;;12.60;99.90;;;;;;5075049;28;20229;-56
2022/10/25 00:16:16;;;;;;;1.43;0.63;;;12.60;99.90;;;;;;5073949;28;20299;-55
2022/10/25 00:18:45;;;;;;;4.07;0.80;;;12.70;99.90;;;;;;5074438;28;20525;-56
2022/10/25 00:21:11;;;;;;;3.77;0.80;;;12.70;99.90;;;;;;5074327;28;20615;-55
2022/10/25 00:23:38;;;;;;;3.97;0.73;;;12.60;99.90;;;;;;5074689;28;20216;-56
2022/10/25 00:26:07;;;;;;;2.40;0.87;;;12.70;99.90;;;;;;5073881;28;20205;-55
2022/10/25 00:28:34;;;;;;;4.47;1.30;;;12.70;99.90;;;;;;5074352;28;20205;-56
2022/10/25 00:31:01;;;;;;;1.80;0.93;;;12.70;99.90;;;;;;5074214;28;20205;-55
2022/10/25 00:33:30;;;;;;;1.83;1.20;;;12.70;99.90;;;;;;5074013;28;20305;-55
2022/10/25 00:36:03;;;;;;;2.17;1.07;;;12.70;99.90;;;;;;5073557;28;20692;-57
2022/10/25 00:38:30;;;;;;;3.40;1.40;;;12.80;99.90;;;;;;5073706;28;20294;-58
2022/10/25 00:40:57;;;;;;;2.67;0.93;;;12.90;99.90;;;;;;5074060;28;20209;-57
2022/10/25 00:43:35;;;;;;;2.33;1.27;;;12.90;99.90;;;;;;5074125;28;20389;-57
2022/10/25 00:46:05;;;;;;;2.73;1.03;;;12.90;99.90;;;;;;5073178;28;20205;-58
2022/10/25 00:48:32;;;;;;;2.00;1.33;;;12.90;99.90;;;;;;5073850;28;20220;-55
2022/10/25 00:51:00;;;;;;;2.33;1.20;;;12.90;99.90;;;;;;5074069;28;20673;-57
2022/10/25 00:53:31;;;;;;;1.50;1.30;;;12.90;99.90;;;;;;5074172;28;20201;-55
2022/10/25 00:56:03;;;;;;;4.80;1.93;;;12.90;99.90;;;;;;5073275;28;20204;-56
2022/10/25 00:58:33;;;;;;;1.50;1.00;;;12.80;99.90;;;;;;5073635;28;20229;-56
2022/10/25 01:01:00;;;;;;;2.70;1.07;;;12.90;99.90;;;;;;5073837;28;20213;-55
2022/10/25 01:03:27;;;;;;;4.17;1.27;;;12.90;99.90;;;;;;5073859;28;20209;-56
2022/10/25 01:05:54;;;;;;;1.23;1.03;;;12.90;99.90;;;;;;5073161;28;20212;-56
2022/10/25 01:08:24;;;;;;;1.63;1.00;;;13.00;99.90;;;;;;5073600;28;20229;-56
2022/10/25 01:10:50;;;;;;;2.37;1.20;;;13.00;99.90;;;;;;5073516;28;20212;-55
2022/10/25 01:13:18;;;;;;;1.67;1.00;;;13.00;99.90;;;;;;5073395;28;20676;-56
2022/10/25 01:16:00;;;;;;;1.27;0.80;;;13.00;99.90;;;;;;5073544;28;20212;-55
2022/10/25 01:18:42;;;;;;;5.40;1.30;;;13.00;99.90;;;;;;5073401;28;20228;-55
2022/10/25 01:21:42;;;;;;;2.70;1.00;;;13.00;99.90;;;;;;5073428;28;20251;-56
2022/10/25 01:24:44;;;;;;;3.33;1.07;;;12.90;99.90;;;;;;5073500;28;20201;-57
2022/10/25 01:27:25;;;;;;;2.70;1.33;;;12.90;99.90;;;;;;5072627;28;20258;-56
2022/10/25 01:30:05;;;;;;;0.93;0.90;;;12.90;99.90;;;;;;5073610;28;20344;-56
2022/10/25 01:32:40;;;;;;;2.40;0.90;;;12.90;99.90;;;;;;5073136;28;20629;-56
2022/10/25 01:35:14;;;;;;;3.47;1.00;;;12.90;99.90;;;;;;5073199;28;20212;-55
2022/10/25 01:37:51;;;;;;;1.73;1.00;;;12.90;99.90;;;;;;5072375;28;20225;-55
2022/10/25 01:40:25;;;;;;;2.30;1.00;;;12.90;99.90;;;;;;5072857;28;20717;-57
2022/10/25 01:43:01;;;;;;;1.77;1.00;;;12.90;99.90;;;;;;5073139;28;20204;-57
2022/10/25 01:45:30;;;;;;;3.10;1.00;;;12.90;99.90;;;;;;5073179;28;20211;-57
2022/10/25 01:48:04;;;;;;;2.80;1.07;;;12.90;99.90;;;;;;5072515;28;20724;-58
2022/10/25 01:50:34;;;;;;;2.47;1.10;;;12.90;99.90;;;;;;5072123;28;20204;-59
2022/10/25 01:53:01;;;;;;;4.23;1.27;;;13.00;99.90;;;;;;5072928;28;20205;-59
2022/10/25 01:55:33;;;;;;;2.93;1.40;;;13.00;99.90;;;;;;5072927;28;20224;-57
2022/10/25 01:58:13;;;;;;;3.00;0.93;;;13.00;99.90;;;;;;5072158;28;20228;-58
2022/10/25 02:00:53;;;;;;;2.83;1.30;;;13.00;99.90;;;;;;5072527;28;20231;-59
2022/10/25 02:03:30;;;;;;;2.63;0.80;;;13.00;99.90;;;;;;5072420;28;20220;-59
2022/10/25 02:06:09;;;;;;;3.40;1.00;;;13.00;99.90;;;;;;5072609;28;20211;-59
2022/10/25 02:08:41;;;;;;;2.00;0.97;;;13.00;99.90;;;;;;5072523;28;20201;-59
2022/10/25 02:11:15;;;;;;;2.70;1.40;;;13.00;99.90;;;;;;5072434;28;20201;-59
2022/10/25 02:13:53;;;;;;;3.23;1.17;;;13.00;99.90;;;;;;5072170;28;20482;-59
2022/10/25 02:16:24;;;;;;;3.03;1.00;;;13.20;99.90;;;;;;5071666;28;20289;-59
2022/10/25 02:18:56;;;;;;;3.83;1.33;;;13.20;99.90;;;;;;5072123;28;20208;-59
2022/10/25 02:21:25;;;;;;;3.30;1.20;;;13.20;99.90;;;;;;5072227;28;20200;-58
2022/10/25 02:23:53;;;;;;;3.33;1.40;;;13.20;99.90;;;;;;5072025;28;20589;-59
2022/10/25 02:26:21;;;;;;;3.63;1.07;;;13.20;99.90;;;;;;5071263;28;21265;-59
2022/10/25 02:28:48;;;;;;;3.27;1.33;;;13.20;99.90;;;;;;5072060;28;20291;-59
2022/10/25 02:31:17;;;;;;;3.37;1.27;;;13.20;99.90;;;;;;5072021;28;20197;-59
2022/10/25 02:33:44;;;;;;;1.80;1.27;;;13.20;99.90;;;;;;5072041;28;20567;-59
2022/10/25 02:36:15;;;;;;;3.70;1.07;;;13.20;99.90;;;;;;5071257;28;20205;-59
2022/10/25 02:38:43;;;;;;;3.50;1.70;;;13.20;99.90;;;;;;5071849;28;20205;-59
2022/10/25 02:41:11;;;;;;;1.60;1.10;;;13.10;99.90;;;;;;5071840;28;20709;-59
2022/10/25 02:43:37;;;;;;;5.83;1.87;;;13.10;99.90;;;;;;5072002;28;20227;-59
2022/10/25 02:46:08;;;;;;;4.83;1.80;;;13.20;99.90;;;;;;5071204;28;20250;-59
2022/10/25 02:48:36;;;;;;;3.67;1.20;;;13.10;99.90;;;;;;5071791;28;20711;-58
2022/10/25 02:51:02;;;;;;;2.67;1.53;;;13.10;99.90;;;;;;5071728;28;20204;-59
2022/10/25 02:53:31;;;;;;;3.67;1.57;;;13.20;99.90;;;;;;5071971;28;20213;-58
2022/10/25 02:56:02;;;;;;;4.20;1.30;;;13.10;99.90;;;;;;5071759;28;20212;-59
2022/10/25 02:58:33;;;;;;;4.83;1.73;;;13.20;99.90;;;;;;5071696;28;20587;-59
2022/10/25 03:01:00;;;;;;;4.53;1.20;;;13.00;99.90;;;;;;5071430;28;20715;-59
2022/10/25 03:03:28;;;;;;;4.97;1.67;;;13.00;99.90;;;;;;5071628;28;20579;-59
2022/10/25 03:05:54;;;;;;;2.00;1.20;;;13.00;99.90;;;;;;5071533;28;20209;-59
2022/10/25 03:08:22;;;;;;;3.23;1.47;;;12.90;99.90;;;;;;5070850;28;20231;-59
2022/10/25 03:10:50;;;;;;;4.37;1.53;;;12.90;99.90;;;;;;5071661;28;20208;-59
2022/10/25 03:13:17;;;;;;;4.87;2.10;;;12.90;99.90;;;;;;5071555;28;20228;-59
2022/10/25 03:15:45;;;;;;;3.73;1.70;;;12.90;99.90;;;;;;5071696;28;20216;-59
2022/10/25 03:18:12;;;;;;;4.60;1.30;;;12.90;99.90;;;;;;5070760;28;20225;-59
2022/10/25 03:20:39;;;;;;;3.53;1.60;;;12.90;99.90;;;;;;5071669;28;20282;-59
2022/10/25 03:23:06;;;;;;;5.97;1.40;;;12.90;99.90;;;;;;5071579;28;20220;-58
2022/10/25 03:25:33;;;;;;;6.63;2.17;;;12.90;99.90;;;;;;5071553;28;20208;-58
2022/10/25 03:28:01;;;;;;;3.63;1.60;;;12.90;99.90;;;;;;5070715;28;20731;-58
2022/10/25 03:30:29;;;;;;;5.43;1.73;;;12.90;99.90;;;;;;5071580;28;20232;-58
2022/10/25 03:32:56;;;;;;;4.33;1.50;;;12.90;99.90;;;;;;5071394;28;20201;-59
2022/10/25 03:35:23;;;;;;;3.70;1.73;;;12.90;99.90;;;;;;5071456;28;20201;-58
2022/10/25 03:37:50;;;;;;;3.70;2.10;;;12.90;99.90;;;;;;5070649;28;20232;-58
2022/10/25 03:40:18;;;;;;;7.23;3.33;;;12.90;99.90;;;;;;5071203;28;20224;-58
2022/10/25 03:42:44;;;;;;;6.20;2.10;;;12.90;99.90;;;;;;5071057;28;20668;-57
2022/10/25 03:45:13;;;;;;;5.47;2.70;;;13.00;99.90;;;;;;5071109;28;20204;-58
2022/10/25 03:47:39;;;;;;;8.07;1.60;;;12.90;99.90;;;;;;5070597;28;20237;-58
2022/10/25 03:50:07;;;;;;;3.90;1.77;;;12.90;99.90;;;;;;5071380;28;20665;-58
2022/10/25 03:52:34;;;;;;;6.17;1.63;;;12.90;99.90;;;;;;5071504;28;20204;-59
2022/10/25 03:55:01;;;;;;;5.30;2.47;;;12.90;99.90;;;;;;5071295;28;20299;-57
2022/10/25 03:57:28;;;;;;;6.17;1.73;;;12.90;99.90;;;;;;5071093;28;20225;-59
2022/10/25 03:59:56;;;;;;;8.00;2.27;;;12.90;99.90;;;;;;5071299;28;20229;-59
2022/10/25 04:02:25;;;;;;;4.57;1.50;;;12.90;99.90;;;;;;5071634;28;20200;-58
2022/10/25 04:04:52;;;;;;;6.70;1.60;;;12.90;99.90;;;;;;5071671;28;20684;-58
2022/10/25 04:07:19;;;;;;;3.23;1.57;;;12.80;99.90;;;;;;5070675;28;20221;-59
2022/10/25 04:09:46;;;;;;;2.23;1.37;;;12.90;99.90;;;;;;5071705;28;20201;-59
2022/10/25 04:12:13;;;;;;;3.77;1.97;;;12.90;99.90;;;;;;5071631;28;20208;-59
2022/10/25 04:14:39;;;;;;;4.47;2.30;;;12.80;99.90;;;;;;5074977;28;20204;-59
2022/10/25 04:17:06;;;;;;;3.77;1.60;;;12.90;99.90;;;;;;5074389;28;20220;-58
2022/10/25 04:19:35;;;;;;;3.20;1.60;;;12.80;99.90;;;;;;5074846;28;20204;-59
2022/10/25 04:22:01;;;;;;;3.97;1.77;;;12.80;99.90;;;;;;5074923;28;20213;-58
2022/10/25 04:24:28;;;;;;;2.80;1.90;;;12.80;99.90;;;;;;5074775;28;20205;-58
2022/10/25 04:26:55;;;;;;;2.53;1.90;;;12.80;99.90;;;;;;5073629;28;20236;-60
2022/10/25 04:29:22;;;;;;;7.17;2.47;;;12.80;99.90;;;;;;5074699;28;20409;-58
2022/10/25 04:31:49;;;;;;;6.30;2.03;;;12.80;99.90;;;;;;5074944;28;20205;-58
2022/10/25 04:34:16;;;;;;;4.93;1.80;;;12.80;99.90;;;;;;5074662;28;20205;-57
2022/10/25 04:36:44;;;;;;;7.10;2.80;;;12.80;99.90;;;;;;5073898;28;20261;-58
2022/10/25 04:39:11;;;;;;;3.17;1.90;;;12.80;99.90;;;;;;5074268;28;20201;-58
2022/10/25 04:41:37;;;;;;;3.63;1.80;;;12.80;99.90;;;;;;5074185;28;20229;-58
2022/10/25 04:44:04;;;;;;;3.37;1.70;;;12.80;99.90;;;;;;5074536;28;20204;-58
2022/10/25 04:46:31;;;;;;;6.00;2.53;;;12.80;99.90;;;;;;5073557;28;20685;-59
2022/10/25 04:48:58;;;;;;;2.90;2.10;;;12.80;99.90;;;;;;5074248;28;20205;-58
2022/10/25 04:51:25;;;;;;;3.20;2.13;;;12.80;99.90;;;;;;5074109;28;20564;-59
2022/10/25 04:53:54;;;;;;;4.83;2.43;;;12.80;99.90;;;;;;5074409;28;20292;-59
2022/10/25 04:56:21;;;;;;;7.23;2.97;;;12.90;99.90;;;;;;5073952;28;20209;-59
2022/10/25 04:58:48;;;;;;;4.50;1.83;;;12.90;99.90;;;;;;5074562;28;20227;-59
2022/10/25 05:01:17;;;;;;;4.20;2.30;;;12.90;99.90;;;;;;5074062;28;20225;-59
2022/10/25 05:03:44;;;;;;;4.00;1.83;;;12.90;99.90;;;;;;5074576;28;20267;-59
2022/10/25 05:06:13;;;;;;;3.27;1.93;;;12.90;99.90;;;;;;5073847;28;20232;-58
2022/10/25 05:08:40;;;;;;;4.07;1.97;;;13.00;99.90;;;;;;5073282;28;20211;-58
2022/10/25 05:11:09;;;;;;;6.83;2.47;;;12.90;99.90;;;;;;5073717;28;20197;-58
2022/10/25 05:13:37;;;;;;;5.80;2.30;;;12.90;99.90;;;;;;5073670;28;20256;-59
2022/10/25 05:16:04;;;;;;;6.73;2.53;;;12.90;99.90;;;;;;5073935;28;20212;-59
2022/10/25 05:18:32;;;;;;;3.80;2.20;;;12.90;99.90;;;;;;5073165;28;20232;-57
2022/10/25 05:21:02;;;;;;;4.10;1.73;;;12.90;99.90;;;;;;5073575;28;20217;-57
2022/10/25 05:23:30;;;;;;;3.50;1.80;;;12.80;99.90;;;;;;5072999;28;20209;-58
2022/10/25 05:26:01;;;;;;;3.27;1.50;;;12.80;99.90;;;;;;5072892;28;20215;-59
2022/10/25 05:28:29;;;;;;;3.03;1.80;;;12.70;99.90;;;;;;5072817;28;20271;-58
2022/10/25 05:30:56;;;;;;;3.67;1.73;;;12.70;99.90;;;;;;5073245;28;20204;-58
2022/10/25 05:33:23;;;;;;;4.43;1.87;;;12.80;99.90;;;;;;5073064;28;20231;-59
2022/10/25 05:35:49;;;;;;;3.30;2.00;;;12.70;99.90;;;;;;5073195;28;20232;-58
2022/10/25 05:38:16;;;;;;;2.90;2.00;;;12.70;99.90;;;;;;5072467;28;20233;-58
2022/10/25 05:40:43;;;;;;;3.73;1.73;;;12.70;99.90;;;;;;5073109;28;20221;-58
2022/10/25 05:43:09;;;;;;;3.50;1.87;;;12.70;99.90;;;;;;5073152;28;20216;-58
2022/10/25 05:45:37;;;;;;;3.43;1.90;;;12.70;99.90;;;;;;5072739;28;20205;-57
2022/10/25 05:48:04;;;;;;;4.07;1.97;;;12.60;99.90;;;;;;5071918;28;20233;-57
2022/10/25 05:50:31;;;;;;;4.77;1.77;;;12.60;99.90;;;;;;5073110;28;20703;-58
2022/10/25 05:52:58;;;;;;;3.33;1.97;;;12.70;99.90;;;;;;5073110;28;20205;-57
2022/10/25 05:55:24;;;;;;;3.73;2.20;;;12.60;99.90;;;;;;5072558;28;20697;-58
2022/10/25 05:57:51;;;;;;;6.50;2.50;;;12.70;99.90;;;;;;5072158;28;20228;-58
2022/10/25 06:00:18;;;;;;;3.67;2.10;;;12.80;99.90;;;;;;5072506;28;20232;-57
2022/10/25 06:02:46;;;;;;;4.93;2.00;;;12.90;99.90;;;;;;5072541;28;20792;-58
2022/10/25 06:05:13;;;;;;;5.07;2.20;;;13.10;99.90;;;;;;5073081;28;20236;-58
2022/10/25 06:07:40;;;;;;;6.50;2.17;;;13.20;99.90;;;;;;5072024;28;20232;-58
2022/10/25 06:10:07;;;;;;;4.43;1.90;;;13.40;99.90;;;;;;5072487;28;20211;-57
2022/10/25 06:12:34;;;;;;;3.73;1.70;;;13.50;99.90;;;;;;5072601;28;20209;-58
2022/10/25 06:15:00;;;;;;;3.50;1.73;;;13.60;99.90;;;;;;5072686;28;20216;-58
2022/10/25 06:17:27;;;;;;;3.40;1.73;;;13.70;99.90;;;;;;5072113;28;20630;-58
2022/10/25 06:19:55;;;;;;;6.10;2.03;;;13.80;99.90;;;;;;5072318;28;20798;-58
2022/10/25 06:22:22;;;;;;;4.20;2.00;;;13.80;99.90;;;;;;5072963;28;20254;-56
2022/10/25 06:24:49;;;;;;;4.37;1.77;;;13.90;99.90;;;;;;5072966;28;20204;-58
2022/10/25 06:27:16;;;;;;;3.77;1.90;;;14.00;99.90;;;;;;5071673;28;20231;-58
2022/10/25 06:29:42;;;;;;;4.97;1.70;;;14.10;99.90;;;;;;5072539;28;20220;-58
2022/10/25 06:32:09;;;;;;;3.33;1.70;;;14.20;99.90;;;;;;5072539;28;20262;-58
2022/10/25 06:34:36;;;;;;;2.87;1.50;;;14.20;99.90;;;;;;5072421;28;20209;-58
2022/10/25 06:37:04;;;;;;;2.83;1.93;;;14.20;99.90;;;;;;5071016;28;20236;-58
2022/10/25 06:39:31;;;;;;;4.03;2.17;;;14.20;99.90;;;;;;5072134;28;20208;-58
2022/10/25 06:41:57;;;;;;;4.53;2.00;;;14.10;99.90;;;;;;5072130;28;20324;-58
2022/10/25 06:44:24;;;;;;;4.00;1.70;;;14.20;99.90;;;;;;5071948;28;20209;-58
2022/10/25 06:46:51;;;;;;;2.47;1.77;;;14.70;99.90;;;;;;5071236;28;20663;-58
2022/10/25 06:49:17;;;;;;;4.37;1.83;;;15.40;99.90;;;;;;5072253;28;20212;-58
2022/10/25 06:51:44;;;;;;;5.75;2.20;;;16.30;99.90;;;;;;5071851;28;20668;-58
2022/10/25 06:54:12;;;;;;;5.13;2.13;;;17.00;99.90;;;;;;5072201;28;20212;-59
2022/10/25 06:56:39;;;;;;;3.85;1.65;;;17.60;99.90;;;;;;5071614;28;20224;-59
2022/10/25 06:59:07;;;;;;;2.38;1.50;;;17.90;99.90;;;;;;5071737;28;20201;-58
2022/10/25 07:01:34;;;;;;;6.43;1.90;;;17.90;99.90;;;;;;5071775;28;20742;-58
2022/10/25 07:04:02;;;;;;;4.78;1.60;;;17.60;99.90;;;;;;5072009;28;20700;-58
2022/10/25 07:06:34;;;;;;;3.63;1.55;;;17.30;99.90;;;;;;5071228;28;20221;-58
2022/10/25 07:09:01;;;;;;;2.08;1.10;;;17.10;99.90;;;;;;5072130;28;20262;-59
2022/10/25 07:11:32;;;;;;;3.83;1.33;;;16.80;99.90;;;;;;5071884;28;20201;-58
2022/10/25 07:14:00;;;;;;;5.73;1.53;;;16.60;99.90;;;;;;5072112;28;20212;-58
2022/10/25 07:16:28;;;;;;;1.75;1.23;;;16.50;99.90;;;;;;5071858;28;20236;-58
2022/10/25 07:18:58;;;;;;;2.97;1.20;;;16.30;99.90;;;;;;5071910;28;20216;-58
2022/10/25 07:21:24;;;;;;;2.95;1.30;;;16.20;99.90;;;;;;5071652;28;20224;-58
2022/10/25 07:23:51;;;;;;;4.67;1.73;;;16.20;99.90;;;;;;5071652;28;20200;-57
2022/10/25 07:26:20;;;;;;;2.67;1.43;;;16.30;99.90;;;;;;5071529;28;20239;-57
2022/10/25 07:28:49;;;;;;;4.38;1.40;;;16.40;99.90;;;;;;5071124;28;20208;-58
2022/10/25 07:31:18;;;;;;;3.27;1.30;;;16.50;99.90;;;;;;5071749;28;20618;-58
2022/10/25 07:33:45;;;;;;;3.43;1.40;;;16.60;99.90;;;;;;5071566;28;20302;-58
2022/10/25 07:36:12;;;;;;;3.35;1.00;;;16.70;99.90;;;;;;5071421;28;20210;-58
2022/10/25 07:38:38;;;;;;;3.83;1.40;;;16.90;99.90;;;;;;5070636;28;20212;-58
2022/10/25 07:41:06;;;;;;;4.43;1.30;;;17.00;99.90;;;;;;5071419;28;20644;-58
2022/10/25 07:43:33;;;;;;;3.40;1.25;;;17.10;99.90;;;;;;5071381;28;20673;-57
2022/10/25 07:46:01;;;;;;;4.38;1.10;;;17.10;99.90;;;;;;5058969;28;20198;-64
2022/10/25 07:48:28;;;;;;;6.25;2.70;;;17.10;99.90;;;;;;5074803;22;20233;-59
2022/10/25 07:50:55;;;;;;;3.08;1.40;;;17.10;99.90;;;;;;5053583;28;20212;-59
2022/10/25 07:53:22;;;;;;;5.05;1.35;;;17.20;99.90;;;;;;5054096;28;20201;-60
2022/10/25 07:55:50;;;;;;;5.53;1.35;;;17.30;99.90;;;;;;5053677;28;20650;-59
2022/10/25 07:58:17;;;;;;;3.88;1.70;;;17.20;99.90;;;;;;5053286;28;20260;-60
2022/10/25 08:00:44;;;;;;;3.45;1.20;;;17.10;99.90;;;;;;5053897;28;20201;-59
2022/10/25 08:03:12;;;;;;;5.20;1.25;;;17.00;99.90;;;;;;5053760;28;20205;-60
2022/10/25 08:05:39;;;;;;;3.78;1.20;;;16.90;99.90;;;;;;5053264;28;20634;-61
2022/10/25 08:08:06;;;;;;;4.88;1.60;;;16.80;99.90;;;;;;5053173;28;20233;-60
2022/10/25 08:10:33;;;;;;;8.43;1.75;;;16.80;99.90;;;;;;5053491;28;20554;-59
2022/10/25 08:12:59;;;;;;;3.83;1.42;;;16.60;99.90;;;;;;5053458;28;20212;-59
2022/10/25 08:15:26;;;;;;;5.50;1.60;;;16.60;99.90;;;;;;5053057;28;20905;-60
2022/10/25 08:17:58;;;;;;;3.33;1.20;;;16.60;99.90;;;;;;5053007;28;20237;-60
2022/10/25 08:20:27;;;;;;;3.53;1.30;;;16.60;99.90;;;;;;5053386;28;20719;-60
2022/10/25 08:22:57;;;;;;;4.57;1.30;;;16.60;99.90;;;;;;5052752;28;20602;-60
2022/10/25 08:25:24;;;;;;;3.08;1.20;;;16.70;99.90;;;;;;5053135;28;20209;-60
2022/10/25 08:27:50;;;;;;;3.25;1.40;;;16.70;99.90;;;;;;5052943;28;20236;-59
2022/10/25 08:30:17;;;;;;;4.60;1.20;;;16.70;99.90;;;;;;5053557;28;20221;-60
2022/10/25 08:32:44;;;;;;;4.30;1.27;;;16.70;99.90;;;;;;5052801;28;20627;-60
2022/10/25 08:35:11;;;;;;;6.85;1.58;;;16.80;99.90;;;;;;5052767;28;20206;-60
2022/10/25 08:37:39;;;;;;;5.70;2.10;;;16.80;99.90;;;;;;5052931;28;20411;-60
2022/10/25 08:40:07;;;;;;;3.97;1.30;;;16.90;99.90;;;;;;5053421;28;20221;-60
2022/10/25 08:42:45;;;;;;;4.28;1.20;;;16.90;99.90;;;;;;5052619;28;20634;-62
2022/10/25 08:45:19;;;;;;;1.98;1.02;;;17.00;99.90;;;;;;5052828;28;20213;-60
2022/10/25 08:47:51;;;;;;;5.40;1.98;;;17.00;99.90;;;;;;5052115;28;20242;-60
2022/10/25 08:50:22;;;;;;;4.13;1.60;;;17.10;99.90;;;;;;5053331;28;20293;-61
2022/10/25 08:52:53;;;;;;;2.70;1.13;;;17.10;99.90;;;;;;5052988;28;20263;-59
2022/10/25 08:55:26;;;;;;;3.58;1.60;;;17.10;99.90;;;;;;5052717;28;20210;-60
2022/10/25 08:57:54;;;;;;;3.88;1.30;;;17.10;99.90;;;;;;5051915;28;20222;-59
2022/10/25 09:00:22;;;;;;;1.30;0.82;;;17.20;99.90;;;;;;5052964;28;20205;-59
2022/10/25 09:02:52;;;;;;;7.07;1.40;;;17.30;99.90;;;;;;5052446;28;20237;-61
2022/10/25 09:05:33;;;;;;;1.88;1.10;;;17.30;99.90;;;;;;5052413;28;20209;-61
2022/10/25 09:08:26;;;;;;;6.55;1.48;;;17.40;99.90;;;;;;5051986;28;20229;-62
2022/10/25 09:11:01;;;;;;;4.32;1.35;;;17.50;99.90;;;;;;5052543;28;20205;-58
2022/10/25 09:13:38;;;;;;;6.85;1.30;;;17.60;99.90;;;;;;5052375;28;20707;-60
2022/10/25 09:16:15;;;;;;;5.07;1.70;;;17.70;99.90;;;;;;5052554;28;20692;-58
2022/10/25 09:18:47;;;;;;;2.65;1.10;;;17.70;99.90;;;;;;5051682;28;20225;-60
2022/10/25 09:21:18;;;;;;;2.63;1.20;;;17.80;99.90;;;;;;5052593;28;20206;-61
2022/10/25 09:23:59;;;;;;;1.95;1.10;;;17.80;99.90;;;;;;5051523;28;20228;-60
2022/10/25 09:26:40;;;;;;;4.57;1.35;;;17.90;99.90;;;;;;5052281;28;20673;-62
2022/10/25 09:29:15;;;;;;;4.57;1.15;;;18.00;99.90;;;;;;5052289;28;20233;-62
2022/10/25 09:31:47;;;;;;;5.22;1.27;;;18.00;99.90;;;;;;5052388;28;20605;-62
2022/10/25 09:34:18;;;;;;;5.95;1.42;;;18.10;99.90;;;;;;5051346;28;20707;-61
2022/10/25 09:36:48;;;;;;;3.13;1.20;;;18.10;99.90;;;;;;5051381;28;20820;-62
2022/10/25 09:39:20;;;;;;;5.15;1.20;;;18.10;99.90;;;;;;5052652;28;20216;-63
2022/10/25 09:41:51;;;;;;;2.38;1.20;;;18.20;99.90;;;;;;5053052;28;20317;-59
2022/10/25 09:44:35;;;;;;;4.15;1.48;;;18.20;99.90;;;;;;5052601;28;20206;-60
2022/10/25 09:47:10;;;;;;;3.05;1.13;;;18.20;99.90;;;;;;5051071;28;20645;-61
2022/10/25 09:49:43;;;;;;;6.88;1.40;;;18.30;99.90;;;;;;5051850;28;20208;-61
2022/10/25 09:52:16;;;;;;;3.63;1.45;;;18.40;99.90;;;;;;5052090;28;20209;-61
2022/10/25 09:54:49;;;;;;;3.42;1.35;;;18.40;99.90;;;;;;5051070;28;20213;-60
2022/10/25 09:57:16;;;;;;;5.13;1.50;;;18.50;99.90;;;;;;5051402;28;20233;-61
2022/10/25 09:59:43;;;;;;;5.40;1.20;;;18.60;99.90;;;;;;5051683;28;20217;-60
2022/10/25 10:02:15;;;;;;;3.63;1.42;;;18.50;99.90;;;;;;5051914;28;20668;-63
2022/10/25 10:04:42;;;;;;;6.70;1.42;;;18.60;99.90;;;;;;5051680;28;20194;-60
2022/10/25 10:07:17;;;;;;;3.60;1.42;;;18.60;99.90;;;;;;5050974;28;20638;-61
2022/10/25 10:09:46;;;;;;;6.68;2.15;;;18.70;99.90;;;;;;5051134;28;20237;-61
2022/10/25 10:12:22;;;;;;;3.40;1.20;;;18.80;99.90;;;;;;5051181;28;20210;-60
2022/10/25 10:14:56;;;;;;;5.15;1.40;;;18.80;99.90;;;;;;5051009;28;20209;-60
2022/10/25 10:17:24;;;;;;;3.67;1.38;;;18.90;99.90;;;;;;5050764;28;20658;-61
2022/10/25 10:20:10;;;;;;;5.22;1.70;;;18.90;99.90;;;;;;5051501;28;20670;-60
2022/10/25 10:22:43;;;;;;;2.70;1.23;;;18.90;99.90;;;;;;5051390;28;20602;-62
2022/10/25 10:25:16;;;;;;;3.88;1.08;;;19.00;99.90;;;;;;5050832;28;20778;-60
2022/10/25 10:27:46;;;;;;;3.47;1.20;;;19.10;99.90;;;;;;5050689;28;20260;-60
2022/10/25 10:30:23;;;;;;;4.47;1.13;;;19.10;99.90;;;;;;5051421;28;20623;-59
2022/10/25 10:32:55;;;;;;;5.15;1.30;;;19.20;99.90;;;;;;5051535;28;20291;-58
2022/10/25 10:35:31;;;;;;;3.85;1.00;;;19.30;99.90;;;;;;5050917;28;20248;-59
2022/10/25 10:38:20;;;;;;;3.35;1.30;;;19.40;99.90;;;;;;5049622;28;20225;-61
2022/10/25 10:40:48;;;;;;;4.85;1.60;;;19.40;99.90;;;;;;5051168;28;20205;-61
2022/10/25 10:43:29;;;;;;;2.28;1.23;;;19.50;99.90;;;;;;5050964;28;20229;-63
2022/10/25 10:46:01;;;;;;;7.25;1.30;;;19.50;99.90;;;;;;5050608;28;20282;-63
2022/10/25 10:48:33;;;;;;;4.03;1.48;;;19.60;99.90;;;;;;5049674;28;20740;-64
2022/10/25 10:51:00;;;;;;;2.97;2.05;;;19.70;99.90;;;;;;5051261;28;20214;-64
2022/10/25 10:53:28;;;;;;;2.65;1.00;;;19.90;99.90;;;;;;5050921;28;20708;-64
2022/10/25 10:55:58;;;;;;;5.07;1.40;;;20.00;99.90;;;;;;5051139;28;20210;-62
2022/10/25 10:58:27;;;;;;;3.00;1.13;;;20.30;99.90;;;;;;5049820;28;20226;-60
2022/10/25 11:00:58;;;;;;;10.13;1.27;;;20.50;99.90;;;;;;5050498;28;20217;-60
2022/10/25 11:03:46;;;;;;;5.55;1.35;;;20.60;99.90;;;;;;5050552;28;20576;-60
2022/10/25 11:06:16;;;;;;;6.47;1.60;;;20.70;99.90;;;;;;5050686;28;20564;-61
2022/10/25 11:08:44;;;;;;;4.75;1.20;;;20.90;99.90;;;;;;5049718;28;20235;-61
2022/10/25 11:11:20;;;;;;;3.40;2.00;;;20.90;99.90;;;;;;5050422;28;20727;-61
2022/10/25 11:13:53;;;;;;;4.15;1.52;;;20.90;99.90;;;;;;5050011;28;20605;-61
2022/10/25 11:16:38;;;;;;;2.75;1.13;;;20.90;99.90;;;;;;5050626;28;20565;-61
2022/10/25 11:19:22;;;;;;;3.58;1.13;;;21.10;99.90;;;;;;5049844;28;20684;-60
2022/10/25 11:22:10;;;;;;;8.10;1.83;;;21.20;99.90;;;;;;5052380;28;20215;-61
2022/10/25 11:24:45;;;;;;;4.30;1.60;;;21.60;99.90;;;;;;5054484;28;20201;-60
2022/10/25 11:27:23;;;;;;;3.75;1.30;;;22.10;99.90;;;;;;5054082;28;20232;-61
2022/10/25 11:30:01;;;;;;;4.13;1.83;;;22.60;99.90;;;;;;5054318;28;20235;-61
2022/10/25 11:33:11;;;;;;;3.75;1.42;;;22.90;99.90;;;;;;5054817;28;20691;-60
2022/10/25 11:36:25;;;;;;;5.88;1.73;;;23.10;99.90;;;;;;5053840;28;20201;-62
2022/10/25 11:39:04;;;;;;;5.50;1.27;;;23.30;99.90;;;;;;4971440;28;20731;-60
2022/10/25 11:41:43;;;;;;;4.45;1.17;;;23.60;99.90;;;;;;5051784;28;20204;-60
2022/10/25 11:44:47;;;;;;;5.63;2.13;;;23.80;99.90;;;;;;5053873;28;20247;-59
2022/10/25 11:47:24;;;;;;;4.25;1.90;;;24.00;99.90;;;;;;5053609;28;20236;-59
2022/10/25 11:49:58;;;;;;;3.58;1.40;;;24.20;99.90;;;;;;5053608;28;20683;-59
2022/10/25 11:52:43;;;;;;;2.42;0.88;;;24.50;99.90;;;;;;5054297;28;20204;-61
2022/10/25 11:55:23;;;;;;;3.05;1.00;;;24.70;99.90;;;;;;5054086;28;20201;-59
2022/10/25 11:57:59;;;;;;;3.80;1.17;;;25.10;99.90;;;;;;5053303;28;20225;-60
2022/10/25 12:00:36;;;;;;;5.45;1.23;;;25.40;99.90;;;;;;5053781;28;20555;-60
2022/10/25 12:03:13;;;;;;;2.60;1.10;;;25.60;99.90;;;;;;5053660;28;20267;-60
2022/10/25 12:05:46;;;;;;;4.30;1.40;;;25.40;99.90;;;;;;5053628;28;20282;-60
2022/10/25 12:08:27;;;;;;;5.15;1.27;;;25.20;99.90;;;;;;5053576;28;20229;-62
2022/10/25 12:11:04;;;;;;;2.40;1.20;;;25.10;99.90;;;;;;5054111;28;20212;-61
2022/10/25 12:13:33;;;;;;;5.63;1.33;;;25.00;99.90;;;;;;5053237;28;20204;-61
2022/10/25 12:16:05;;;;;;;4.88;2.85;;;24.90;99.90;;;;;;5053849;28;20206;-62
2022/10/25 12:18:37;;;;;;;9.30;8.30;;;24.60;99.90;;;;;;5053571;28;20781;-59
2022/10/25 12:21:06;;;;;;;4.35;1.17;;;24.30;99.90;;;;;;5053479;28;20206;-62
2022/10/25 12:23:42;;;;;;;8.88;4.35;;;24.00;99.90;;;;;;5053418;28;20229;-61
2022/10/25 12:26:16;;;;;;;2.92;1.10;;;23.80;99.90;;;;;;5053675;28;20205;-61
2022/10/25 12:28:46;;;;;;;3.67;1.23;;;23.30;99.90;;;;;;5054839;28;20248;-61
2022/10/25 12:31:17;;;;;;;4.38;1.25;;;22.80;99.90;;;;;;5053907;28;20201;-61
2022/10/25 12:33:48;;;;;;;3.97;1.30;;;22.30;99.90;;;;;;5053121;28;20205;-62
2022/10/25 12:36:22;;;;;;;4.72;1.23;;;21.90;99.90;;;;;;5053844;28;20240;-62
2022/10/25 12:38:49;;;;;;;2.67;0.95;;;21.60;99.90;;;;;;5053525;28;20736;-62
2022/10/25 12:41:21;;;;;;;4.63;1.38;;;21.20;99.90;;;;;;5053779;28;20201;-61
2022/10/25 12:43:59;;;;;;;2.55;1.15;;;20.90;99.90;;;;;;5054188;28;20653;-61
2022/10/25 12:46:51;;;;;;;5.68;1.73;;;20.60;99.90;;;;;;5053130;28;20219;-63
2022/10/25 12:49:38;;;;;;;2.78;1.27;;;20.80;99.90;;;;;;5052977;28;20205;-61
2022/10/25 12:52:25;;;;;;;3.53;1.45;;;21.00;99.90;;;;;;5052363;28;20229;-62
2022/10/25 12:55:14;;;;;;;3.58;1.20;;;21.20;99.90;;;;;;5053023;28;20216;-62
2022/10/25 12:57:51;;;;;;;4.28;1.30;;;21.30;99.90;;;;;;5053244;28;20233;-61
2022/10/25 13:00:21;;;;;;;5.63;1.60;;;21.30;99.90;;;;;;5054623;28;20212;-60
2022/10/25 13:03:22;;;;;;;8.00;1.98;;;21.40;99.90;;;;;;5052455;28;20225;-62
2022/10/25 13:06:27;;;;;;;1.98;1.08;;;21.50;99.90;;;;;;5052238;28;20583;-61
2022/10/25 13:08:59;;;;;;;2.97;1.33;;;21.30;99.90;;;;;;4970676;28;20232;-61